Galena, Alaska
Current Conditions -  °F | °C
As of 1:58 PM on Thursday 18 Dec 2014 (Local Time) from PAGA Reporting Station
Light Snow Light Snow  
Wind Chill:   Ceiling: 400
Heat Index:   Visibility: 7mi
Dew Point:   Wind: 0mph
Humidity: 91%   Direction: NA
Pressure: 29.68"   Gusts: NA
Location:  64.74°N, 156.93°W
Report Text: PAGA 182258Z AUTO 00000KT 7SM -SN OVC004 M14/M16 A2968 RMK AO2 SLP057 P0000 T11441156 FZRANO
Loading
Personal Weather Stations






























Interactive Weather Map New forecast layout! Learn more

10-Day Weather Forecast

Advertisements
Track Severe Weather on mobile